SUMU/MVD METAR and TAF weather

Enter ICAO airport designator
Station Type Date Time Source
SUMU METAR 2019/02/17 15:00 UTC NOAA

SUMU 171500Z 35006KT 9999 FEW026 27/17 Q1016 NOSIG


Station Type Date Time Source
SUMU Decoded METAR 2019/02/17 15:00 UTC NOAA

Carrasco, Uruguay (SUMU) 34-50S 056-00W 32M
Feb 17, 2019 - 10:00 AM EST / 2019.02.17 1500 UTC
Wind: from the N (350 degrees) at 7 MPH (6 KT):0
Visibility: greater than 7 mile(s):0
Sky conditions: mostly clear
Temperature: 80 F (27 C)
Dew Point: 62 F (17 C)
Relative Humidity: 54%
Pressure (altimeter): 30.00 in. Hg (1016 hPa)
ob: SUMU 171500Z 35006KT 9999 FEW026 27/17 Q1016 NOSIG
cycle: 15

Station Type Date Time Source
SUMU TAF 2019/02/17 12:30 UTC NOAA

TAF SUMU 171130Z 1712/1812 02008KT CAVOK TX30/1718Z TN18/1809Z
BECMG 1716/1718 10015KT


Example: see airport list